createdAt,value
2018-03-06T00:01:44.960Z,-0.70
2018-03-06T00:04:11.099Z,-0.70
2018-03-06T00:06:37.920Z,-0.70
2018-03-06T00:09:03.999Z,-0.80
2018-03-06T00:11:30.071Z,-0.90
2018-03-06T00:13:56.912Z,-0.90
2018-03-06T00:16:23.732Z,-0.90
2018-03-06T00:18:49.819Z,-0.90
2018-03-06T00:21:16.203Z,-0.90
2018-03-06T00:23:43.074Z,-1.00
2018-03-06T00:26:09.111Z,-1.00
2018-03-06T00:28:35.255Z,-1.00
2018-03-06T00:31:01.348Z,-1.10
2018-03-06T00:33:27.460Z,-1.10
2018-03-06T00:35:54.267Z,-1.00
2018-03-06T00:38:20.364Z,-1.10
2018-03-06T00:40:46.419Z,-1.10
2018-03-06T00:43:12.507Z,-1.00
2018-03-06T00:45:38.572Z,-1.10
2018-03-06T00:48:05.408Z,-1.10
2018-03-06T00:50:31.472Z,-1.10
2018-03-06T00:52:57.559Z,-1.10
2018-03-06T00:55:23.620Z,-1.10
2018-03-06T00:57:49.705Z,-1.10
2018-03-06T01:00:15.764Z,-1.10
2018-03-06T01:02:41.847Z,-1.00
2018-03-06T01:05:08.667Z,-1.10
2018-03-06T01:07:34.784Z,-1.10
2018-03-06T01:10:00.860Z,-1.10
2018-03-06T01:12:26.943Z,-1.20
2018-03-06T01:14:53.020Z,-1.20
2018-03-06T01:17:19.083Z,-1.30
2018-03-06T01:19:45.167Z,-1.30
2018-03-06T01:22:11.233Z,-1.30
2018-03-06T01:24:37.323Z,-1.30
2018-03-06T01:27:03.404Z,-1.40
2018-03-06T01:29:30.244Z,-1.40
2018-03-06T01:31:57.099Z,-1.40
2018-03-06T01:34:23.160Z,-1.40
2018-03-06T01:36:49.242Z,-1.30
2018-03-06T01:39:15.340Z,-1.30
2018-03-06T01:41:41.412Z,-1.30
2018-03-06T01:44:07.496Z,-1.30
2018-03-06T01:46:33.603Z,-1.40
2018-03-06T01:48:59.692Z,-1.40
2018-03-06T01:51:25.760Z,-1.40
2018-03-06T01:53:51.851Z,-1.50
2018-03-06T01:56:17.924Z,-1.50
2018-03-06T01:58:44.759Z,-1.50
2018-03-06T02:01:11.567Z,-1.50
2018-03-06T02:03:37.661Z,-1.50
2018-03-06T02:06:03.736Z,-1.50
2018-03-06T02:08:30.580Z,-1.50
2018-03-06T02:10:57.401Z,-1.50
2018-03-06T02:13:23.489Z,-1.50
2018-03-06T02:15:49.563Z,-1.50
2018-03-06T02:18:16.400Z,-1.50
2018-03-06T02:20:42.477Z,-1.50
2018-03-06T02:23:08.540Z,-1.50
2018-03-06T02:25:34.623Z,-1.50
2018-03-06T02:28:00.734Z,-1.60
2018-03-06T02:30:26.815Z,-1.50
2018-03-06T02:32:52.891Z,-1.50
2018-03-06T02:35:18.978Z,-1.50
2018-03-06T02:37:45.802Z,-1.60
2018-03-06T02:40:11.884Z,-1.60
2018-03-06T02:42:37.948Z,-1.60
2018-03-06T02:45:04.027Z,-1.80
2018-03-06T02:47:30.141Z,-1.80
2018-03-06T02:49:56.224Z,-1.90
2018-03-06T02:52:23.043Z,-1.90
2018-03-06T02:54:49.123Z,-1.90
2018-03-06T02:57:15.187Z,-1.90
2018-03-06T02:59:41.272Z,-1.90
2018-03-06T03:02:07.353Z,-1.80
2018-03-06T03:04:33.420Z,-1.80
2018-03-06T03:06:59.490Z,-1.80
2018-03-06T03:09:25.569Z,-1.70
2018-03-06T03:11:51.631Z,-1.80
2018-03-06T03:14:17.712Z,-1.80
2018-03-06T03:16:43.775Z,-1.80
2018-03-06T03:19:09.859Z,-1.80
2018-03-06T03:21:35.920Z,-1.70
2018-03-06T03:24:02.005Z,-1.70
2018-03-06T03:26:28.085Z,-1.70
2018-03-06T03:28:54.919Z,-1.70
2018-03-06T03:31:20.993Z,-1.70
2018-03-06T03:33:47.076Z,-1.70
2018-03-06T03:36:13.903Z,-1.70
2018-03-06T03:38:39.968Z,-1.80
2018-03-06T03:41:06.051Z,-1.80
2018-03-06T03:43:32.115Z,-1.80
2018-03-06T03:45:58.183Z,-1.90
2018-03-06T03:48:24.247Z,-1.90
2018-03-06T03:50:51.063Z,-1.90
2018-03-06T03:53:17.128Z,-1.90
2018-03-06T03:55:43.203Z,-1.90
2018-03-06T03:58:09.308Z,-1.80
2018-03-06T04:00:35.391Z,-1.80
2018-03-06T04:03:01.461Z,-1.70
2018-03-06T04:05:27.553Z,-1.80
2018-03-06T04:07:53.603Z,-1.80
2018-03-06T04:10:20.420Z,-1.80
2018-03-06T04:12:46.491Z,-1.80
2018-03-06T04:15:12.556Z,-1.80
2018-03-06T04:17:38.612Z,-1.80
2018-03-06T04:20:04.696Z,-2.00
2018-03-06T04:22:30.756Z,-2.00
2018-03-06T04:24:56.828Z,-2.00
2018-03-06T04:27:22.901Z,-2.00
2018-03-06T04:29:48.975Z,-2.00
2018-03-06T04:32:15.037Z,-2.00
2018-03-06T04:34:41.123Z,-2.00
2018-03-06T04:37:07.183Z,-2.00
2018-03-06T04:39:33.267Z,-2.00
2018-03-06T04:42:00.066Z,-1.90
2018-03-06T04:44:26.126Z,-2.00
2018-03-06T04:46:52.935Z,-1.80
2018-03-06T04:49:19.001Z,-1.90
2018-03-06T04:51:45.088Z,-1.90
2018-03-06T04:54:11.148Z,-1.90
2018-03-06T04:56:37.227Z,-1.80
2018-03-06T04:59:03.304Z,-1.70
2018-03-06T05:01:29.376Z,-1.60
2018-03-06T05:03:56.204Z,-1.40
2018-03-06T05:06:22.279Z,-1.40
2018-03-06T05:08:48.343Z,-1.20
2018-03-06T05:11:14.433Z,-0.90
2018-03-06T05:13:40.495Z,-0.70
2018-03-06T05:16:06.560Z,-0.50
2018-03-06T05:18:32.624Z,-0.30
2018-03-06T05:20:58.707Z,-0.20
2018-03-06T05:23:24.768Z,-0.20
2018-03-06T05:25:50.844Z,-0.10
2018-03-06T05:28:17.660Z,0.00
2018-03-06T05:30:43.732Z,0.00
2018-03-06T05:33:09.808Z,0.00
2018-03-06T05:35:35.885Z,-0.10
2018-03-06T05:38:01.952Z,-0.10
2018-03-06T05:40:28.110Z,-0.10
2018-03-06T05:42:54.184Z,-0.10
2018-03-06T05:45:20.255Z,-0.10
2018-03-06T05:47:46.487Z,-0.20
2018-03-06T05:50:12.583Z,-0.20
2018-03-06T05:52:38.652Z,-0.30
2018-03-06T05:55:04.739Z,-0.40
2018-03-06T05:57:31.559Z,-0.50
2018-03-06T05:59:57.673Z,-0.50
2018-03-06T06:02:23.743Z,-0.50
2018-03-06T06:04:51.351Z,-0.50
2018-03-06T06:07:17.440Z,-0.50
2018-03-06T06:09:43.500Z,-0.50
2018-03-06T06:12:09.581Z,-0.50
2018-03-06T06:14:35.639Z,-0.50
2018-03-06T06:17:01.703Z,-0.50
2018-03-06T06:19:28.503Z,-0.50
2018-03-06T06:21:54.564Z,-0.60
2018-03-06T06:24:21.381Z,-0.60
2018-03-06T06:26:47.444Z,-0.70
2018-03-06T06:29:13.508Z,-0.70
2018-03-06T06:31:40.317Z,-0.70
2018-03-06T06:34:06.379Z,-0.80
2018-03-06T06:36:32.448Z,-0.80
2018-03-06T06:38:58.559Z,-0.70
2018-03-06T06:41:25.376Z,-0.60
2018-03-06T06:43:51.432Z,-0.60
2018-03-06T06:46:18.245Z,-0.30
2018-03-06T06:48:44.316Z,-0.30
2018-03-06T06:51:10.383Z,-0.20
2018-03-06T06:53:36.440Z,-0.10
2018-03-06T06:56:03.236Z,0.10
2018-03-06T06:58:29.293Z,0.00
2018-03-06T07:00:56.212Z,0.20
2018-03-06T07:03:22.268Z,0.20
2018-03-06T07:05:49.060Z,0.30
2018-03-06T07:08:15.128Z,0.40
2018-03-06T07:10:41.191Z,0.40
2018-03-06T07:13:07.265Z,0.40
2018-03-06T07:15:34.060Z,0.90
2018-03-06T07:18:00.125Z,0.90
2018-03-06T07:20:26.928Z,1.60
2018-03-06T07:22:52.991Z,1.60
2018-03-06T07:25:19.781Z,2.10
2018-03-06T07:27:45.852Z,2.10
2018-03-06T07:30:12.660Z,2.20
2018-03-06T07:32:38.733Z,2.20
2018-03-06T07:35:04.813Z,2.40
2018-03-06T07:37:30.899Z,2.40
2018-03-06T07:39:56.959Z,2.30
2018-03-06T07:42:24.616Z,2.50
2018-03-06T07:44:50.676Z,2.50
2018-03-06T07:47:17.483Z,2.70
2018-03-06T07:49:43.548Z,2.60
2018-03-06T07:52:09.616Z,2.70
2018-03-06T07:54:35.684Z,2.80
2018-03-06T07:57:02.506Z,2.90
2018-03-06T07:59:28.564Z,2.80
2018-03-06T08:01:54.639Z,3.00
2018-03-06T08:04:20.696Z,3.00
2018-03-06T08:06:47.508Z,3.10
2018-03-06T08:09:13.563Z,3.10
2018-03-06T08:11:39.654Z,3.10
2018-03-06T08:14:05.692Z,3.30
2018-03-06T08:16:32.495Z,3.70
2018-03-06T08:18:58.568Z,3.70
2018-03-06T08:21:25.367Z,3.90
2018-03-06T08:23:51.478Z,3.80
2018-03-06T08:26:17.508Z,3.90
2018-03-06T08:28:43.768Z,3.80
2018-03-06T08:31:10.571Z,4.10
2018-03-06T08:33:36.655Z,4.00
2018-03-06T08:36:02.696Z,4.20
2018-03-06T08:38:28.759Z,4.20
2018-03-06T08:40:54.812Z,4.30
2018-03-06T08:43:20.880Z,4.50
2018-03-06T08:45:47.464Z,4.70
2018-03-06T08:48:14.669Z,5.10
2018-03-06T08:50:40.728Z,5.10
2018-03-06T08:53:07.548Z,5.90
2018-03-06T08:55:33.592Z,5.90
2018-03-06T08:58:00.399Z,6.80
2018-03-06T09:00:26.449Z,6.90
2018-03-06T09:02:53.256Z,7.00
2018-03-06T09:05:19.304Z,7.00
2018-03-06T09:07:45.367Z,7.20
2018-03-06T09:10:11.420Z,7.40
2018-03-06T09:12:37.492Z,7.50
2018-03-06T09:15:04.296Z,7.30
2018-03-06T09:17:30.385Z,7.30
2018-03-06T09:19:56.440Z,7.30
2018-03-06T09:22:22.517Z,7.50
2018-03-06T09:24:48.568Z,7.80
2018-03-06T09:27:14.628Z,7.80
2018-03-06T09:29:40.688Z,7.90
2018-03-06T09:32:06.749Z,8.20
2018-03-06T09:34:33.617Z,8.40
2018-03-06T09:37:00.423Z,8.20
2018-03-06T09:39:26.504Z,8.20
2018-03-06T09:41:52.572Z,8.20
2018-03-06T09:44:18.644Z,8.10
2018-03-06T09:46:45.444Z,8.50
2018-03-06T09:49:11.520Z,8.50
2018-03-06T09:51:37.587Z,8.70
2018-03-06T09:54:03.684Z,8.70
2018-03-06T09:56:29.743Z,8.80
2018-03-06T09:58:55.823Z,8.60
2018-03-06T10:01:21.872Z,8.70
2018-03-06T10:03:47.953Z,9.00
2018-03-06T10:06:14.048Z,9.00
2018-03-06T10:08:40.904Z,9.40
2018-03-06T10:11:07.733Z,9.30
2018-03-06T10:13:34.590Z,9.60
2018-03-06T10:16:00.707Z,9.60
2018-03-06T10:18:27.553Z,10.00
2018-03-06T10:20:54.376Z,10.20
2018-03-06T10:23:20.488Z,10.20
2018-03-06T10:25:46.685Z,10.20
2018-03-06T10:28:12.920Z,10.20
2018-03-06T10:30:39.021Z,10.10
2018-03-06T10:33:05.137Z,9.90
2018-03-06T10:35:31.224Z,10.10
2018-03-06T10:37:57.333Z,10.30
2018-03-06T10:40:23.421Z,10.60
2018-03-06T10:42:49.509Z,10.50
2018-03-06T10:45:16.349Z,10.00
2018-03-06T10:47:43.192Z,10.30
2018-03-06T10:50:10.029Z,10.30
2018-03-06T10:52:36.857Z,10.30
2018-03-06T10:55:03.710Z,10.50
2018-03-06T10:57:29.813Z,10.50
2018-03-06T10:59:55.905Z,11.00
2018-03-06T11:02:28.222Z,11.40
2018-03-06T11:04:55.037Z,11.20
2018-03-06T11:07:21.091Z,11.10
2018-03-06T11:09:47.896Z,11.30
2018-03-06T11:12:13.946Z,11.20
2018-03-06T11:14:40.763Z,11.70
2018-03-06T11:17:06.874Z,11.60
2018-03-06T11:19:32.947Z,12.00
2018-03-06T11:21:59.049Z,12.30
2018-03-06T11:24:25.108Z,12.30
2018-03-06T11:26:51.161Z,12.00
2018-03-06T11:29:17.237Z,12.10
2018-03-06T11:31:44.023Z,11.80
2018-03-06T11:34:10.104Z,11.80
2018-03-06T11:36:36.156Z,11.90
2018-03-06T11:39:02.236Z,11.90
2018-03-06T11:41:29.035Z,12.20
2018-03-06T11:43:55.108Z,12.10
2018-03-06T11:46:21.905Z,12.50
2018-03-06T11:48:47.972Z,12.40
2018-03-06T11:51:14.020Z,12.20
2018-03-06T11:53:40.104Z,12.30
2018-03-06T11:56:06.904Z,12.40
2018-03-06T11:58:32.972Z,12.40
2018-03-06T12:00:59.783Z,12.10
2018-03-06T12:03:25.831Z,12.10
2018-03-06T12:05:52.653Z,12.30
2018-03-06T12:08:18.699Z,12.30
2018-03-06T12:10:45.559Z,12.80
2018-03-06T12:13:11.620Z,12.70
2018-03-06T12:15:37.696Z,12.50
2018-03-06T12:18:03.755Z,12.50
2018-03-06T12:20:29.827Z,12.70
2018-03-06T12:22:56.623Z,12.60
2018-03-06T12:25:22.705Z,12.60
2018-03-06T12:27:48.764Z,12.60
2018-03-06T12:30:14.847Z,12.50
2018-03-06T12:32:41.636Z,12.70
2018-03-06T12:35:07.728Z,12.70
2018-03-06T12:37:33.804Z,12.70
2018-03-06T12:39:59.855Z,12.40
2018-03-06T12:42:25.924Z,12.40
2018-03-06T12:44:52.009Z,12.70
2018-03-06T12:47:18.071Z,12.70
2018-03-06T12:49:44.153Z,12.50
2018-03-06T12:52:10.215Z,12.10
2018-03-06T12:54:36.304Z,11.60
2018-03-06T12:57:02.361Z,11.40
2018-03-06T12:59:28.432Z,11.60
2018-03-06T13:01:55.247Z,11.90
2018-03-06T13:04:21.336Z,11.80
2018-03-06T13:06:47.395Z,11.90
2018-03-06T13:09:13.465Z,11.70
2018-03-06T13:11:39.548Z,11.70
2018-03-06T13:14:06.356Z,11.70
2018-03-06T13:16:32.449Z,11.70
2018-03-06T13:18:58.506Z,11.40
2018-03-06T13:21:24.599Z,11.60
2018-03-06T13:23:50.679Z,11.70
2018-03-06T13:26:17.507Z,11.80
2018-03-06T13:28:43.567Z,11.80
2018-03-06T13:31:09.648Z,11.60
2018-03-06T13:33:35.719Z,11.60
2018-03-06T13:36:01.802Z,11.50
2018-03-06T13:38:27.859Z,11.20
2018-03-06T13:40:54.730Z,10.90
2018-03-06T13:43:20.759Z,10.90
2018-03-06T13:45:46.872Z,11.10
2018-03-06T13:48:12.980Z,11.10
2018-03-06T13:50:39.056Z,11.30
2018-03-06T13:53:05.116Z,11.20
2018-03-06T13:55:31.228Z,11.20
2018-03-06T13:57:58.036Z,10.90
2018-03-06T14:00:24.115Z,10.90
2018-03-06T14:02:50.175Z,10.80
2018-03-06T14:05:16.248Z,10.80
2018-03-06T14:07:43.063Z,10.70
2018-03-06T14:10:09.232Z,10.70
2018-03-06T14:12:35.296Z,10.60
2018-03-06T14:15:01.373Z,10.40
2018-03-06T14:17:27.456Z,10.40
2018-03-06T14:19:53.516Z,10.10
2018-03-06T14:22:19.584Z,10.00
2018-03-06T14:24:45.645Z,9.90
2018-03-06T14:27:11.721Z,10.00
2018-03-06T14:29:37.896Z,9.80
2018-03-06T14:32:03.968Z,9.60
2018-03-06T14:34:30.053Z,9.40
2018-03-06T14:36:56.131Z,9.30
2018-03-06T14:39:22.192Z,9.40
2018-03-06T14:41:48.266Z,9.30
2018-03-06T14:44:14.325Z,9.20
2018-03-06T14:46:41.148Z,9.00
2018-03-06T14:49:07.280Z,9.00
2018-03-06T14:51:34.100Z,9.10
2018-03-06T14:54:00.177Z,9.00
2018-03-06T14:56:26.263Z,9.00
2018-03-06T14:58:52.316Z,8.80
2018-03-06T15:01:18.380Z,8.90
2018-03-06T15:03:44.704Z,8.60
2018-03-06T15:06:10.792Z,8.40
2018-03-06T15:08:36.852Z,8.40
2018-03-06T15:11:03.669Z,8.20
2018-03-06T15:13:29.722Z,8.20
2018-03-06T15:15:55.804Z,8.10
2018-03-06T15:18:21.861Z,7.90
2018-03-06T15:20:47.948Z,7.90
2018-03-06T15:23:14.004Z,7.80
2018-03-06T15:25:40.063Z,7.60
2018-03-06T15:28:06.892Z,7.30
2018-03-06T15:30:32.961Z,7.30
2018-03-06T15:32:59.073Z,7.30
2018-03-06T15:35:25.144Z,7.20
2018-03-06T15:37:51.217Z,7.10
2018-03-06T15:40:17.295Z,7.00
2018-03-06T15:42:43.364Z,7.00
2018-03-06T15:45:09.416Z,6.80
2018-03-06T15:47:35.489Z,6.70
2018-03-06T15:50:02.276Z,6.70
2018-03-06T15:52:28.354Z,6.80
2018-03-06T15:54:55.156Z,6.70
2018-03-06T15:57:21.223Z,6.70
2018-03-06T15:59:48.032Z,6.60
2018-03-06T16:02:14.124Z,6.60
2018-03-06T16:04:40.188Z,6.50
2018-03-06T16:07:06.273Z,6.40
2018-03-06T16:09:32.368Z,6.30
2018-03-06T16:11:58.481Z,6.30
2018-03-06T16:14:25.275Z,6.20
2018-03-06T16:16:51.352Z,6.10
2018-03-06T16:19:17.420Z,6.10
2018-03-06T16:21:43.492Z,6.10
2018-03-06T16:24:10.279Z,6.00
2018-03-06T16:26:36.352Z,5.90
2018-03-06T16:29:03.160Z,5.80
2018-03-06T16:31:29.235Z,5.80
2018-03-06T16:33:55.296Z,5.70
2018-03-06T16:36:21.388Z,5.70
2018-03-06T16:38:47.540Z,5.60
2018-03-06T16:41:15.832Z,5.50
2018-03-06T16:43:43.974Z,5.40
2018-03-06T16:46:10.304Z,5.40
2018-03-06T16:48:36.378Z,5.30
2018-03-06T16:51:03.807Z,5.20
2018-03-06T16:53:31.206Z,5.20
2018-03-06T16:55:59.268Z,5.10
2018-03-06T16:58:25.936Z,5.10
2018-03-06T17:00:52.019Z,5.00
2018-03-06T17:03:18.823Z,4.90
2018-03-06T17:05:44.880Z,4.90
2018-03-06T17:08:11.710Z,4.70
2018-03-06T17:10:38.524Z,4.70
2018-03-06T17:13:04.604Z,4.60
2018-03-06T17:15:30.675Z,4.60
2018-03-06T17:17:56.884Z,4.50
2018-03-06T17:20:22.935Z,4.40
2018-03-06T17:22:49.028Z,4.40
2018-03-06T17:25:15.084Z,4.30
2018-03-06T17:27:41.185Z,4.30
2018-03-06T17:30:07.268Z,4.20
2018-03-06T17:32:33.336Z,4.20
2018-03-06T17:35:00.152Z,4.10
2018-03-06T17:37:26.227Z,4.10
2018-03-06T17:39:53.051Z,4.00
2018-03-06T17:42:19.132Z,4.00
2018-03-06T17:44:45.208Z,4.00
2018-03-06T17:47:11.285Z,4.00
2018-03-06T17:49:37.380Z,3.90
2018-03-06T17:52:03.456Z,3.90
2018-03-06T17:54:29.776Z,3.80
2018-03-06T17:56:56.711Z,3.80
2018-03-06T17:59:22.780Z,3.80
2018-03-06T18:01:49.588Z,3.70
2018-03-06T18:04:15.670Z,3.70
2018-03-06T18:06:41.741Z,3.70
2018-03-06T18:09:07.817Z,3.70
2018-03-06T18:11:33.885Z,3.70
2018-03-06T18:13:59.969Z,3.60
2018-03-06T18:16:26.063Z,3.70
2018-03-06T18:18:52.885Z,3.60
2018-03-06T18:21:18.947Z,3.60
2018-03-06T18:23:45.012Z,3.50
2018-03-06T18:26:11.103Z,3.50
2018-03-06T18:28:37.195Z,3.50
2018-03-06T18:31:04.000Z,3.50
2018-03-06T18:33:30.117Z,3.50
2018-03-06T18:35:56.181Z,3.50
2018-03-06T18:38:22.996Z,3.50
2018-03-06T18:40:49.060Z,3.40
2018-03-06T18:43:15.128Z,3.50
2018-03-06T18:45:41.192Z,3.50
2018-03-06T18:48:08.008Z,3.40
2018-03-06T18:50:46.340Z,3.40
2018-03-06T18:53:12.384Z,3.40
2018-03-06T18:55:38.436Z,3.40
2018-03-06T18:58:04.515Z,3.40
2018-03-06T19:03:47.923Z,3.30
2018-03-06T19:06:23.991Z,3.30
2018-03-06T19:08:52.238Z,3.20
2018-03-06T19:11:20.538Z,3.20
2018-03-06T19:13:49.495Z,3.10
2018-03-06T19:16:17.768Z,3.10
2018-03-06T19:18:46.012Z,3.10
2018-03-06T19:21:15.052Z,3.00
2018-03-06T19:23:43.342Z,3.00
2018-03-06T19:26:11.576Z,3.10
2018-03-06T19:28:39.834Z,3.00
2018-03-06T19:31:08.841Z,3.00
2018-03-06T19:33:37.093Z,2.90
2018-03-06T19:36:06.106Z,2.90
2018-03-06T19:38:34.352Z,2.90
2018-03-06T19:41:03.351Z,2.80
2018-03-06T19:43:32.371Z,2.80
2018-03-06T19:46:00.614Z,2.80
2018-03-06T19:48:28.903Z,2.80
2018-03-06T19:50:57.892Z,2.70
2018-03-06T19:53:26.150Z,2.70
2018-03-06T19:55:55.168Z,2.60
2018-03-06T19:58:23.422Z,2.70
2018-03-06T20:00:52.425Z,2.60
2018-03-06T20:03:21.485Z,2.60
2018-03-06T20:05:49.711Z,2.60
2018-03-06T20:08:17.947Z,2.50
2018-03-06T20:10:46.978Z,2.40
2018-03-06T20:13:15.226Z,2.40
2018-03-06T20:15:44.259Z,2.40
2018-03-06T20:18:12.498Z,2.40
2018-03-06T20:20:40.745Z,2.40
2018-03-06T20:23:08.987Z,2.40
2018-03-06T20:25:42.944Z,2.30
2018-03-06T20:28:11.947Z,2.30
2018-03-06T20:30:45.953Z,2.30
2018-03-06T20:33:17.108Z,2.20
2018-03-06T20:35:45.355Z,2.20
2018-03-06T20:38:20.056Z,2.20
2018-03-06T20:40:48.306Z,2.10
2018-03-06T20:43:16.540Z,2.10
2018-03-06T20:48:47.727Z,2.10
2018-03-06T20:51:15.980Z,2.10
2018-03-06T20:56:49.827Z,2.00
2018-03-06T20:59:18.081Z,2.00
2018-03-06T21:01:46.319Z,2.00
2018-03-06T21:04:14.569Z,2.00
2018-03-06T21:06:42.805Z,1.90
2018-03-06T21:09:11.053Z,1.90
2018-03-06T21:11:40.060Z,1.80
2018-03-06T21:14:09.067Z,1.80
2018-03-06T21:16:37.312Z,1.80
2018-03-06T21:19:06.332Z,1.80
2018-03-06T21:21:34.571Z,1.80
2018-03-06T21:24:03.569Z,1.70
2018-03-06T21:26:32.583Z,1.80
2018-03-06T21:29:00.822Z,1.80
2018-03-06T21:31:29.063Z,1.80
2018-03-06T21:33:57.300Z,1.70
2018-03-06T21:36:25.560Z,1.60
2018-03-06T21:38:54.566Z,1.60
2018-03-06T21:41:22.821Z,1.60
2018-03-06T21:43:51.825Z,1.50
2018-03-06T21:46:20.133Z,1.50
2018-03-06T21:48:49.140Z,1.50
2018-03-06T21:51:17.376Z,1.50
2018-03-06T21:53:45.645Z,1.50
2018-03-06T21:56:13.856Z,1.50
2018-03-06T21:58:42.093Z,1.50
2018-03-06T22:01:10.348Z,1.40
2018-03-06T22:03:39.349Z,1.40
2018-03-06T22:06:08.360Z,1.40
2018-03-06T22:08:36.613Z,1.40
2018-03-06T22:11:05.620Z,1.40
2018-03-06T22:13:33.859Z,1.40
2018-03-06T22:16:02.106Z,1.30
2018-03-06T22:18:30.367Z,1.30
2018-03-06T22:20:58.592Z,1.30
2018-03-06T22:23:27.588Z,1.40
2018-03-06T22:25:56.603Z,1.40
2018-03-06T22:28:24.844Z,1.40
2018-03-06T22:30:53.865Z,1.40
2018-03-06T22:33:22.092Z,1.30
2018-03-06T22:35:50.341Z,1.30
2018-03-06T22:38:18.580Z,1.30
2018-03-06T22:40:46.832Z,1.30
2018-03-06T22:43:15.823Z,1.30
2018-03-06T22:45:44.835Z,1.30
2018-03-06T22:48:13.081Z,1.20
2018-03-06T22:50:41.332Z,1.20
2018-03-06T22:53:09.564Z,1.20
2018-03-06T22:55:37.821Z,1.20
2018-03-06T22:58:06.820Z,1.20
2018-03-06T23:00:35.080Z,1.20
2018-03-06T23:03:04.072Z,1.20
2018-03-06T23:05:33.088Z,1.20
2018-03-06T23:08:01.325Z,1.20
2018-03-06T23:10:29.571Z,1.30
2018-03-06T23:12:57.805Z,1.30
2018-03-06T23:15:26.040Z,1.30
2018-03-06T23:17:54.290Z,1.30
2018-03-06T23:20:22.529Z,1.30
2018-03-06T23:22:50.762Z,1.20
2018-03-06T23:25:19.001Z,1.20
2018-03-06T23:27:47.327Z,1.20
2018-03-06T23:30:16.320Z,1.20
2018-03-06T23:32:45.331Z,1.20
2018-03-06T23:35:13.586Z,1.10
2018-03-06T23:37:42.597Z,1.10
2018-03-06T23:40:10.835Z,1.10
2018-03-06T23:42:39.075Z,1.20
2018-03-06T23:45:07.307Z,1.20
2018-03-06T23:47:36.377Z,1.10
2018-03-06T23:50:04.612Z,1.00
2018-03-06T23:52:32.868Z,1.00
2018-03-06T23:55:01.108Z,1.00
2018-03-06T23:57:30.119Z,1.00
2018-03-06T23:59:58.353Z,1.00
